»·PEaware :: AAL614 MMMX-KDFW

AAL614 :: MMMX-KDFW

FLIGHT INFORMATION

Flight Status: Arrived
Operator:
American Airlines
More flights by this operator :: More flights under this callsign
Pilot: John H. (7647)
Aircraft: BOEING 737-800
(B738)
More flights by this aircraft type
Origin: MMMX Lic Benito Juarez Intl
Mexico
Destination: KDFW Dallas-Ft Worth Intl
United States
More flights between these airports :: More routes between these airports
Route: APN5B APN UJ38 PIVOL/N0466F340 UJ38 CVM/N0465F350 UJ41 TALBI/N0465F340 UJ41 NLD/N0464F350 J22 LRD J21 SAT JEN1
File this flight plan on PilotEdge
Remarks: PBN / A1B1C1D1S1S2 DOF / 180922 REG / N806SB EET / MMTY0039 KZHU0114 KZFW0146 OPR / AAL PER / C TALT / MMAA RMK / TCAS SIMBRIEF
Altitude:
(Current/Filed)
35,000ft
Speed:
(Current/Filed)
465kts
Departed: 23-Sep-18 05:22 AM
Arrived: 23-Sep-18 07:30 AM
Distance/Time
Traveled:
815nm/2:08
Distance/Time
To Go:
Arrived

Flight Plot

Page will automatically refresh every two minutes.

Flight plan parsing failed; only flown route is shown


Map Options




Map Legend


Flown Route
Filed Route
Departure Airport
Arrival Airport
Navaid (VOR, NDB)
Fix

Horizontal Profiles

Position Reports

Time Latitude Longitude Heading Altitude Ground
Speed
23-Sep-18 05:10 19.437137 -99.077227 316 7337ft 0kts
23-Sep-18 05:11 19.436806 -99.076927 345 7337ft 2kts
23-Sep-18 05:12 19.436417 -99.077109 61 7338ft 1kts
23-Sep-18 05:13 19.436406 -99.077129 60 7338ft 0kts
23-Sep-18 05:14 19.436533 -99.076893 60 7337ft 3kts
23-Sep-18 05:15 19.437578 -99.075073 57 7334ft 10kts
23-Sep-18 05:16 19.438804 -99.072841 60 7337ft 7kts
23-Sep-18 05:17 19.440004 -99.070835 61 7340ft 8kts
23-Sep-18 05:18 19.441553 -99.067978 59 7339ft 15kts
23-Sep-18 05:19 19.444138 -99.062730 101 7329ft 24kts
23-Sep-18 05:20 19.443254 -99.060305 111 7327ft 6kts
23-Sep-18 05:21 19.442373 -99.058073 113 7329ft 9kts
23-Sep-18 05:22 19.442139 -99.055405 60 7334ft 8kts
23-Sep-18 05:23 19.443961 -99.052579 7 7331ft 14kts
23-Sep-18 05:24 19.443521 -99.056297 242 7334ft 43kts
23-Sep-18 05:25 19.424466 -99.090262 238 7885ft 181kts
23-Sep-18 05:26 19.398835 -99.131888 237 9983ft 159kts
23-Sep-18 05:27 19.356409 -99.152820 149 10044ft 215kts
23-Sep-18 05:28 19.360702 -99.100288 44 10026ft 214kts
23-Sep-18 05:29 19.396826 -99.110117 259 11973ft 195kts
23-Sep-18 05:30 19.439912 -99.123403 56 12624ft 271kts
23-Sep-18 05:31 19.466818 -99.036898 73 13575ft 334kts
23-Sep-18 05:32 19.491930 -98.943416 73 15522ft 347kts
23-Sep-18 05:33 19.518205 -98.845382 73 17754ft 353kts
23-Sep-18 05:34 19.545500 -98.743792 79 19839ft 365kts
23-Sep-18 05:35 19.573360 -98.639212 79 21848ft 374kts
23-Sep-18 05:36 19.601715 -98.532355 79 23335ft 393kts
23-Sep-18 05:37 19.640922 -98.419359 50 24545ft 433kts
23-Sep-18 05:38 19.752143 -98.373513 8 25996ft 452kts
23-Sep-18 05:39 19.870040 -98.351170 9 27313ft 464kts
23-Sep-18 05:40 19.989669 -98.327759 9 28538ft 475kts
23-Sep-18 05:41 20.117057 -98.302593 9 29545ft 491kts
23-Sep-18 05:42 20.250121 -98.276170 10 30528ft 503kts
23-Sep-18 05:43 20.365295 -98.253222 10 31451ft 510kts
23-Sep-18 05:44 20.527972 -98.220688 10 32800ft 517kts
23-Sep-18 05:45 20.644654 -98.197336 10 33769ft 519kts
23-Sep-18 05:46 20.786320 -98.168892 10 34926ft 520kts
23-Sep-18 05:47 20.947009 -98.179391 341 34994ft 505kts
23-Sep-18 05:48 21.080628 -98.217356 342 35003ft 504kts
23-Sep-18 05:49 21.184134 -98.246275 342 34988ft 504kts
23-Sep-18 05:50 21.314589 -98.282656 342 34989ft 503kts
23-Sep-18 05:51 21.463727 -98.324253 342 34993ft 503kts
23-Sep-18 05:52 21.574997 -98.355311 342 34994ft 503kts
23-Sep-18 05:53 21.708995 -98.392761 342 34996ft 503kts
23-Sep-18 05:54 21.842734 -98.430208 342 34997ft 502kts
23-Sep-18 05:55 21.976077 -98.467606 342 34999ft 502kts
23-Sep-18 05:56 22.105743 -98.504030 342 34999ft 502kts
23-Sep-18 05:57 22.235139 -98.540461 342 34988ft 502kts
23-Sep-18 05:58 22.365106 -98.577121 342 34990ft 501kts
23-Sep-18 05:59 22.496916 -98.614376 342 34992ft 501kts
23-Sep-18 06:00 22.622325 -98.649890 342 34994ft 501kts
23-Sep-18 06:01 22.749066 -98.685784 341 34998ft 500kts
23-Sep-18 06:02 22.881824 -98.723443 341 35054ft 500kts
23-Sep-18 06:03 23.015173 -98.761350 341 35056ft 499kts
23-Sep-18 06:04 23.145995 -98.798626 341 35043ft 499kts
23-Sep-18 06:05 23.278922 -98.836575 341 35053ft 497kts
23-Sep-18 06:06 23.407146 -98.873147 340 35050ft 481kts
23-Sep-18 06:07 23.534556 -98.909632 340 35025ft 467kts
23-Sep-18 06:08 23.661373 -98.946105 340 35049ft 479kts
23-Sep-18 06:09 23.791556 -98.973442 347 35051ft 482kts
23-Sep-18 06:10 23.923450 -98.993971 347 35052ft 482kts
23-Sep-18 06:11 24.054516 -99.014513 347 35053ft 481kts
23-Sep-18 06:12 24.182031 -99.034589 347 35045ft 479kts
23-Sep-18 06:13 24.312951 -99.055280 347 35045ft 479kts
23-Sep-18 06:14 24.443983 -99.076049 347 35047ft 479kts
23-Sep-18 06:15 24.574311 -99.096766 347 35053ft 469kts
23-Sep-18 06:16 24.703395 -99.117342 347 35049ft 478kts
23-Sep-18 06:17 24.833349 -99.138094 347 35074ft 475kts
23-Sep-18 06:18 24.963037 -99.158863 347 35077ft 476kts
23-Sep-18 06:19 25.092514 -99.179638 347 35079ft 475kts
23-Sep-18 06:20 25.217248 -99.199632 346 35057ft 458kts
23-Sep-18 06:21 25.343370 -99.219986 346 35072ft 463kts
23-Sep-18 06:22 25.469975 -99.240445 346 35073ft 463kts
23-Sep-18 06:23 25.596151 -99.260890 347 35074ft 462kts
23-Sep-18 06:24 25.722236 -99.281347 346 35074ft 463kts
23-Sep-18 06:25 25.847825 -99.301771 346 35074ft 463kts
23-Sep-18 06:26 25.974469 -99.322417 347 35075ft 463kts
23-Sep-18 06:27 26.100592 -99.343026 347 35049ft 463kts
23-Sep-18 06:28 26.225314 -99.363434 347 35041ft 463kts
23-Sep-18 06:29 26.351649 -99.384177 347 35044ft 463kts
23-Sep-18 06:30 26.478118 -99.404966 347 35042ft 463kts
23-Sep-18 06:31 26.604079 -99.425734 347 35042ft 462kts
23-Sep-18 06:32 26.730826 -99.446660 347 35045ft 463kts
23-Sep-18 06:33 26.857220 -99.467575 347 35046ft 463kts
23-Sep-18 06:34 26.983959 -99.488609 347 35046ft 463kts
23-Sep-18 06:35 27.108462 -99.509330 346 35046ft 463kts
23-Sep-18 06:36 27.234182 -99.530312 347 35042ft 463kts
23-Sep-18 06:37 27.361314 -99.547078 4 35056ft 471kts
23-Sep-18 06:38 27.467704 -99.464878 58 35064ft 490kts
23-Sep-18 06:39 27.571099 -99.373943 16 35057ft 481kts
23-Sep-18 06:40 27.694412 -99.322945 17 35044ft 480kts
23-Sep-18 06:41 27.817730 -99.269920 17 35047ft 481kts
23-Sep-18 06:42 27.940361 -99.216757 17 35048ft 481kts
23-Sep-18 06:43 28.064374 -99.162771 17 35049ft 481kts
23-Sep-18 06:44 28.186440 -99.109428 17 35046ft 482kts
23-Sep-18 06:45 28.310014 -99.055269 17 35048ft 482kts
23-Sep-18 06:46 28.434005 -99.000762 17 35047ft 482kts
23-Sep-18 06:47 28.558050 -98.946070 17 35048ft 482kts
23-Sep-18 06:48 28.681700 -98.891402 17 35023ft 483kts
23-Sep-18 06:49 28.805695 -98.836364 17 35024ft 484kts
23-Sep-18 06:50 28.928656 -98.781740 17 35025ft 483kts
23-Sep-18 06:51 29.052017 -98.726778 17 35026ft 484kts
23-Sep-18 06:52 29.166985 -98.675431 17 35022ft 484kts
23-Sep-18 06:53 29.289607 -98.620527 17 35024ft 485kts
23-Sep-18 06:54 29.409453 -98.566701 17 35014ft 488kts
23-Sep-18 06:55 29.535246 -98.510045 17 35019ft 495kts
23-Sep-18 06:56 29.660205 -98.457001 6 35032ft 494kts
23-Sep-18 06:57 29.793397 -98.433124 3 35030ft 491kts
23-Sep-18 06:58 29.927236 -98.409570 3 35085ft 491kts
23-Sep-18 06:59 30.058913 -98.386090 3 35060ft 491kts
23-Sep-18 07:00 30.188915 -98.362742 3 35052ft 491kts
23-Sep-18 07:01 30.314115 -98.340150 3 35043ft 491kts
23-Sep-18 07:02 30.445238 -98.316491 3 35045ft 492kts
23-Sep-18 07:03 30.571415 -98.293604 3 35045ft 491kts
23-Sep-18 07:04 30.705605 -98.269183 3 35047ft 491kts
23-Sep-18 07:05 30.839187 -98.244785 3 35022ft 492kts
23-Sep-18 07:06 30.963497 -98.221937 3 35023ft 482kts
23-Sep-18 07:07 31.094499 -98.197885 3 35023ft 482kts
23-Sep-18 07:08 31.203118 -98.177880 3 33712ft 487kts
23-Sep-18 07:09 31.332968 -98.153824 3 30108ft 482kts
23-Sep-18 07:10 31.466484 -98.131001 3 27159ft 491kts
23-Sep-18 07:11 31.596008 -98.111187 3 24263ft 451kts
23-Sep-18 07:12 31.710790 -98.065474 27 22006ft 444kts
23-Sep-18 07:13 31.816416 -97.994242 28 20112ft 433kts
23-Sep-18 07:14 31.917090 -97.926372 28 18354ft 411kts
23-Sep-18 07:15 32.015745 -97.859893 29 16586ft 402kts
23-Sep-18 07:16 32.108418 -97.797383 29 14933ft 385kts
23-Sep-18 07:17 32.197547 -97.737362 30 13317ft 359kts
23-Sep-18 07:18 32.280889 -97.684859 27 11865ft 335kts
23-Sep-18 07:19 32.362211 -97.636891 27 10424ft 314kts
23-Sep-18 07:20 32.425499 -97.578033 46 9215ft 275kts
23-Sep-18 07:21 32.475790 -97.516055 64 8088ft 259kts
23-Sep-18 07:22 32.486597 -97.430619 82 6947ft 266kts
23-Sep-18 07:23 32.494082 -97.345751 82 5833ft 255kts
23-Sep-18 07:24 32.503160 -97.264796 59 4926ft 244kts
23-Sep-18 07:25 32.558639 -97.220983 38 4432ft 241kts
23-Sep-18 07:26 32.609384 -97.171021 39 3905ft 235kts
23-Sep-18 07:27 32.659794 -97.120933 39 3455ft 238kts
23-Sep-18 07:28 32.709934 -97.071007 37 2952ft 228kts
23-Sep-18 07:29 32.759456 -97.032040 2 2541ft 210kts
23-Sep-18 07:30 32.816985 -97.030450 0 1808ft 192kts
23-Sep-18 07:31 32.863446 -97.030178 1 908ft 159kts
23-Sep-18 07:32 32.888850 -97.030610 165 565ft 0kts

Navigation Log

Ident Type
Flight plan parsing failed, navigation log unavailable